createdAt,value
2022-09-28T00:00:24.397Z,50.93
2022-09-28T00:05:28.947Z,50.91
2022-09-28T00:10:30.434Z,51.84
2022-09-28T00:15:31.926Z,51.51
2022-09-28T00:20:33.392Z,50.78
2022-09-28T00:25:35.055Z,48.75
2022-09-28T00:30:36.527Z,49.68
2022-09-28T00:35:37.995Z,50.19
2022-09-28T00:40:39.490Z,50.84
2022-09-28T00:45:41.062Z,49.75
2022-09-28T00:50:42.997Z,49.38
2022-09-28T00:55:46.581Z,50.00
2022-09-28T01:00:48.579Z,50.78
2022-09-28T01:05:51.029Z,51.14
2022-09-28T01:10:52.503Z,50.93
2022-09-28T01:16:03.290Z,51.03
2022-09-28T01:21:19.020Z,51.65
2022-09-28T01:26:29.187Z,51.73
2022-09-28T01:31:32.023Z,49.79
2022-09-28T01:36:36.676Z,51.27
2022-09-28T01:41:40.186Z,52.23
2022-09-28T01:46:44.695Z,53.00
2022-09-28T01:51:58.079Z,53.43
2022-09-28T01:57:10.556Z,53.46
2022-09-28T02:02:16.623Z,53.60
2022-09-28T02:07:32.204Z,53.45
2022-09-28T02:12:42.541Z,52.08
2022-09-28T02:17:43.998Z,52.46
2022-09-28T02:22:50.023Z,52.01
2022-09-28T02:27:58.329Z,51.88
2022-09-28T02:33:02.598Z,51.67
2022-09-28T02:38:04.063Z,51.77
2022-09-28T02:43:29.356Z,51.49
2022-09-28T02:49:10.467Z,50.94
2022-09-28T02:54:34.805Z,50.86
2022-09-28T03:00:13.141Z,51.50
2022-09-28T03:05:38.868Z,53.59
2022-09-28T03:10:48.826Z,53.09
2022-09-28T03:15:50.298Z,52.51
2022-09-28T03:20:52.358Z,52.63
2022-09-28T03:25:54.469Z,52.04
2022-09-28T03:30:56.023Z,51.53
2022-09-28T03:35:57.555Z,51.45
2022-09-28T03:40:59.845Z,50.84
2022-09-28T03:46:01.721Z,50.75
2022-09-28T03:51:05.352Z,50.77
2022-09-28T03:56:14.051Z,50.93
2022-09-28T04:01:18.415Z,51.04
2022-09-28T04:06:20.035Z,51.48
2022-09-28T04:11:21.508Z,51.82
2022-09-28T04:16:23.027Z,51.45
2022-09-28T04:21:24.522Z,51.50
2022-09-28T04:26:26.587Z,51.75
2022-09-28T04:31:28.100Z,51.68
2022-09-28T04:36:29.608Z,52.50
2022-09-28T04:41:31.139Z,51.83
2022-09-28T04:46:32.746Z,52.39
2022-09-28T04:51:34.213Z,53.16
2022-09-28T04:56:35.689Z,53.36
2022-09-28T05:01:37.734Z,53.85
2022-09-28T05:06:39.243Z,54.10
2022-09-28T05:11:40.731Z,54.37
2022-09-28T05:16:42.288Z,54.78
2022-09-28T05:21:46.881Z,54.04
2022-09-28T05:26:48.358Z,54.78
2022-09-28T05:31:49.859Z,55.90
2022-09-28T05:36:52.370Z,55.23
2022-09-28T05:41:54.734Z,55.07
2022-09-28T05:46:56.212Z,56.65
2022-09-28T05:51:57.679Z,55.41
2022-09-28T05:56:59.146Z,55.19
2022-09-28T06:02:00.844Z,55.12
2022-09-28T06:07:02.365Z,55.27
2022-09-28T06:12:03.842Z,55.90
2022-09-28T06:17:05.356Z,55.74
2022-09-28T06:22:06.866Z,55.70
2022-09-28T06:27:08.384Z,56.41
2022-09-28T06:32:09.886Z,56.63
2022-09-28T06:37:11.395Z,56.55
2022-09-28T06:42:12.860Z,57.60
2022-09-28T06:47:14.996Z,57.60
2022-09-28T06:52:16.699Z,57.68
2022-09-28T06:57:18.292Z,57.39
2022-09-28T07:02:20.136Z,56.89
2022-09-28T07:07:21.742Z,56.60
2022-09-28T07:12:25.198Z,55.25
2022-09-28T07:17:26.746Z,54.82
2022-09-28T07:22:41.252Z,53.97
2022-09-28T07:27:44.168Z,52.13
2022-09-28T07:32:45.653Z,52.69
2022-09-28T07:37:47.145Z,51.52
2022-09-28T07:42:48.820Z,51.32
2022-09-28T07:47:51.575Z,50.58
2022-09-28T07:52:53.135Z,50.47
2022-09-28T07:57:56.195Z,49.62
2022-09-28T08:03:00.776Z,49.28
2022-09-28T08:08:02.377Z,49.79
2022-09-28T08:13:06.404Z,49.04
2022-09-28T08:18:10.177Z,49.60
2022-09-28T08:23:11.909Z,50.42
2022-09-28T08:28:13.419Z,49.72
2022-09-28T08:33:17.521Z,50.40
2022-09-28T08:38:19.272Z,49.07
2022-09-28T08:43:31.155Z,50.37
2022-09-28T08:49:01.250Z,49.58
2022-09-28T08:54:39.246Z,49.37
2022-09-28T08:59:53.369Z,48.18
2022-09-28T09:04:54.898Z,47.97
2022-09-28T09:10:12.692Z,48.90
2022-09-28T09:15:41.391Z,47.12
2022-09-28T09:20:50.791Z,46.99
2022-09-28T09:25:55.406Z,46.27
2022-09-28T09:31:09.829Z,46.41
2022-09-28T09:36:34.753Z,47.32
2022-09-28T09:42:03.166Z,47.35
2022-09-28T09:47:09.661Z,46.93
2022-09-28T09:52:47.670Z,46.68
2022-09-28T09:58:10.980Z,45.54
2022-09-28T10:03:22.950Z,46.69
2022-09-28T10:08:24.456Z,46.85
2022-09-28T10:13:26.006Z,46.31
2022-09-28T10:18:27.475Z,44.40
2022-09-28T10:23:30.995Z,45.58
2022-09-28T10:28:51.972Z,44.68
2022-09-28T10:33:53.485Z,45.99
2022-09-28T10:38:55.863Z,45.60
2022-09-28T10:44:07.327Z,45.79
2022-09-28T10:49:18.155Z,46.83
2022-09-28T10:54:21.567Z,46.61
2022-09-28T10:59:28.739Z,45.93
2022-09-28T11:04:38.347Z,46.87
2022-09-28T11:09:41.959Z,46.52
2022-09-28T11:14:44.246Z,46.67
2022-09-28T11:19:45.768Z,46.68
2022-09-28T11:24:48.417Z,46.94
2022-09-28T11:29:57.851Z,46.59
2022-09-28T11:35:00.377Z,46.15
2022-09-28T11:40:27.568Z,45.93
2022-09-28T11:45:59.248Z,43.79
2022-09-28T11:51:10.780Z,43.64
2022-09-28T11:56:40.118Z,43.16
2022-09-28T12:01:50.181Z,41.25
2022-09-28T12:06:59.093Z,40.90
2022-09-28T12:12:02.209Z,39.84
2022-09-28T12:17:08.540Z,38.90
2022-09-28T12:22:32.119Z,39.55
2022-09-28T12:27:51.539Z,39.67
2022-09-28T12:33:15.538Z,40.16
2022-09-28T12:38:30.572Z,40.13
2022-09-28T12:43:56.898Z,39.25
2022-09-28T12:55:02.270Z,42.77
2022-09-28T13:00:22.113Z,44.15
2022-09-28T13:05:48.331Z,43.20
2022-09-28T13:11:06.914Z,42.73
2022-09-28T13:16:36.286Z,42.64
2022-09-28T13:21:41.797Z,43.07
2022-09-28T13:26:44.831Z,43.16
2022-09-28T13:31:59.199Z,42.76
2022-09-28T13:37:21.824Z,43.24
2022-09-28T13:42:36.642Z,44.19
2022-09-28T13:47:51.654Z,43.28
2022-09-28T13:53:19.048Z,43.40
2022-09-28T13:58:25.185Z,43.14
2022-09-28T14:04:03.915Z,43.67
2022-09-28T14:09:15.782Z,42.98
2022-09-28T14:14:17.180Z,43.46
2022-09-28T14:19:19.975Z,43.38
2022-09-28T14:24:45.075Z,43.90
2022-09-28T14:29:46.575Z,43.85
2022-09-28T14:34:54.524Z,43.36
2022-09-28T14:40:14.396Z,42.73
2022-09-28T14:45:19.100Z,41.83
2022-09-28T14:50:20.430Z,42.42
2022-09-28T14:55:31.219Z,41.83
2022-09-28T15:00:32.928Z,42.36
2022-09-28T15:05:38.452Z,42.76
2022-09-28T15:10:45.459Z,42.60
2022-09-28T15:15:50.454Z,42.59
2022-09-28T15:20:52.045Z,42.59
2022-09-28T15:25:54.510Z,42.96
2022-09-28T15:31:00.339Z,43.41
2022-09-28T15:36:04.328Z,42.92
2022-09-28T15:41:05.991Z,42.49
2022-09-28T15:46:13.618Z,42.47
2022-09-28T15:51:15.175Z,42.55
2022-09-28T15:56:16.658Z,42.51
2022-09-28T16:01:36.476Z,42.26
2022-09-28T16:06:38.461Z,42.96
2022-09-28T16:11:39.999Z,42.89
2022-09-28T16:16:47.249Z,42.72
2022-09-28T16:21:48.901Z,43.09
2022-09-28T16:26:55.999Z,42.59
2022-09-28T16:31:57.494Z,42.72
2022-09-28T16:36:58.975Z,42.83
2022-09-28T16:42:02.786Z,43.04
2022-09-28T16:47:04.278Z,43.46
2022-09-28T16:52:11.306Z,43.23
2022-09-28T16:57:12.948Z,43.59
2022-09-28T17:07:43.899Z,43.93
2022-09-28T17:12:45.862Z,44.66
2022-09-28T17:17:47.833Z,44.57
2022-09-28T17:22:50.259Z,44.91
2022-09-28T17:27:51.920Z,45.00
2022-09-28T17:32:53.439Z,45.44
2022-09-28T17:37:54.945Z,45.68
2022-09-28T17:42:56.984Z,45.33
2022-09-28T17:47:58.485Z,45.50
2022-09-28T17:53:02.896Z,45.33
2022-09-28T17:58:18.118Z,44.98
2022-09-28T18:03:21.410Z,45.38
2022-09-28T18:08:22.930Z,44.89
2022-09-28T18:13:25.022Z,45.35
2022-09-28T18:18:26.588Z,45.43
2022-09-28T18:23:28.080Z,45.27
2022-09-28T18:28:29.595Z,45.14
2022-09-28T18:33:31.146Z,45.30
2022-09-28T18:38:35.160Z,45.08
2022-09-28T18:43:37.076Z,45.14
2022-09-28T18:48:40.267Z,44.61
2022-09-28T18:53:41.787Z,44.93
2022-09-28T18:58:43.798Z,44.96
2022-09-28T19:03:45.281Z,44.41
2022-09-28T19:08:51.522Z,43.86
2022-09-28T19:13:53.539Z,43.81
2022-09-28T19:18:58.261Z,44.10
2022-09-28T19:24:02.748Z,43.79
2022-09-28T19:29:04.230Z,44.18
2022-09-28T19:34:06.762Z,44.30
2022-09-28T19:39:12.360Z,44.02
2022-09-28T19:44:35.682Z,44.38
2022-09-28T19:49:38.267Z,44.18
2022-09-28T19:54:39.628Z,43.93
2022-09-28T19:59:41.207Z,44.52
2022-09-28T20:04:42.696Z,45.10
2022-09-28T20:09:44.253Z,45.29
2022-09-28T20:14:45.719Z,44.83
2022-09-28T20:19:47.956Z,44.80
2022-09-28T20:24:49.440Z,44.99
2022-09-28T20:29:50.922Z,46.50
2022-09-28T20:34:52.412Z,50.23
2022-09-28T20:39:53.905Z,48.37
2022-09-28T20:44:55.403Z,47.55
2022-09-28T20:49:56.924Z,47.09
2022-09-28T20:54:58.402Z,47.06
2022-09-28T20:59:59.940Z,47.83
2022-09-28T21:05:01.421Z,47.07
2022-09-28T21:10:02.903Z,46.99
2022-09-28T21:15:06.045Z,46.36
2022-09-28T21:20:08.421Z,46.28
2022-09-28T21:25:09.914Z,45.98
2022-09-28T21:30:11.995Z,45.81
2022-09-28T21:35:13.491Z,46.02
2022-09-28T21:40:15.034Z,45.81
2022-09-28T21:45:17.304Z,45.76
2022-09-28T21:50:21.856Z,45.38
2022-09-28T21:55:23.680Z,46.03
2022-09-28T22:00:25.184Z,46.10
2022-09-28T22:05:28.092Z,46.29
2022-09-28T22:10:29.599Z,46.61
2022-09-28T22:15:31.143Z,46.66
2022-09-28T22:20:32.608Z,46.86
2022-09-28T22:25:34.240Z,46.20
2022-09-28T22:30:35.723Z,46.75
2022-09-28T22:35:37.390Z,45.53
2022-09-28T22:40:43.096Z,46.07
2022-09-28T22:45:44.939Z,46.04
2022-09-28T22:50:50.197Z,45.98
2022-09-28T22:55:51.719Z,45.93
2022-09-28T23:00:53.312Z,46.42
2022-09-28T23:05:55.112Z,45.02
2022-09-28T23:10:56.587Z,45.63
2022-09-28T23:15:59.236Z,46.20
2022-09-28T23:21:20.845Z,46.22
2022-09-28T23:26:24.366Z,46.09
2022-09-28T23:31:27.935Z,46.73
2022-09-28T23:36:29.710Z,47.51
2022-09-28T23:41:31.219Z,46.75
2022-09-28T23:46:32.746Z,46.97
2022-09-28T23:51:34.288Z,46.90
2022-09-28T23:56:35.858Z,46.76
